sensor_id;sensor_type;location;lat;lon;timestamp;P1;durP1;ratioP1;P2;durP2;ratioP2
65831;SDS011;52593;42.648;23.332;2023-02-28T00:00:23;22.88;;;8.90;;
65831;SDS011;52593;42.648;23.332;2023-02-28T00:02:49;25.27;;;8.43;;
65831;SDS011;52593;42.648;23.332;2023-02-28T00:05:16;20.23;;;8.57;;
65831;SDS011;52593;42.648;23.332;2023-02-28T00:07:44;24.83;;;8.95;;
65831;SDS011;52593;42.648;23.332;2023-02-28T00:10:11;21.20;;;8.63;;
65831;SDS011;52593;42.648;23.332;2023-02-28T00:12:38;21.77;;;8.80;;
65831;SDS011;52593;42.648;23.332;2023-02-28T00:15:08;21.80;;;8.40;;
65831;SDS011;52593;42.648;23.332;2023-02-28T00:17:35;21.90;;;8.90;;
65831;SDS011;52593;42.648;23.332;2023-02-28T00:20:01;23.47;;;8.53;;
65831;SDS011;52593;42.648;23.332;2023-02-28T00:22:26;21.65;;;8.20;;
65831;SDS011;52593;42.648;23.332;2023-02-28T00:24:52;21.97;;;9.50;;
65831;SDS011;52593;42.648;23.332;2023-02-28T00:27:17;21.47;;;8.47;;
65831;SDS011;52593;42.648;23.332;2023-02-28T00:29:43;24.95;;;8.05;;
65831;SDS011;52593;42.648;23.332;2023-02-28T00:32:08;22.67;;;7.67;;
65831;SDS011;52593;42.648;23.332;2023-02-28T00:34:33;21.07;;;7.87;;
65831;SDS011;52593;42.648;23.332;2023-02-28T00:37:02;21.73;;;8.82;;
65831;SDS011;52593;42.648;23.332;2023-02-28T00:39:35;18.73;;;7.00;;
65831;SDS011;52593;42.648;23.332;2023-02-28T00:42:02;19.87;;;6.83;;
65831;SDS011;52593;42.648;23.332;2023-02-28T00:44:28;19.25;;;7.15;;
65831;SDS011;52593;42.648;23.332;2023-02-28T00:46:54;22.70;;;7.82;;
65831;SDS011;52593;42.648;23.332;2023-02-28T00:49:21;23.33;;;7.40;;
65831;SDS011;52593;42.648;23.332;2023-02-28T00:51:47;21.48;;;8.45;;
65831;SDS011;52593;42.648;23.332;2023-02-28T00:54:13;21.47;;;8.43;;
65831;SDS011;52593;42.648;23.332;2023-02-28T00:56:38;22.77;;;8.67;;
65831;SDS011;52593;42.648;23.332;2023-02-28T00:59:04;19.43;;;7.83;;
65831;SDS011;52593;42.648;23.332;2023-02-28T01:01:29;25.97;;;9.00;;
65831;SDS011;52593;42.648;23.332;2023-02-28T01:03:55;23.20;;;8.53;;
65831;SDS011;52593;42.648;23.332;2023-02-28T01:06:20;21.80;;;8.55;;
65831;SDS011;52593;42.648;23.332;2023-02-28T01:08:45;21.60;;;8.40;;
65831;SDS011;52593;42.648;23.332;2023-02-28T01:11:11;21.43;;;8.10;;
65831;SDS011;52593;42.648;23.332;2023-02-28T01:13:39;25.02;;;8.63;;
65831;SDS011;52593;42.648;23.332;2023-02-28T01:16:05;20.70;;;8.15;;
65831;SDS011;52593;42.648;23.332;2023-02-28T01:18:31;24.20;;;8.97;;
65831;SDS011;52593;42.648;23.332;2023-02-28T01:20:57;23.17;;;8.85;;
65831;SDS011;52593;42.648;23.332;2023-02-28T01:23:22;23.17;;;9.23;;
65831;SDS011;52593;42.648;23.332;2023-02-28T01:25:48;23.33;;;9.13;;
65831;SDS011;52593;42.648;23.332;2023-02-28T01:28:14;25.03;;;9.33;;
65831;SDS011;52593;42.648;23.332;2023-02-28T01:30:40;25.88;;;10.32;;
65831;SDS011;52593;42.648;23.332;2023-02-28T01:33:05;24.50;;;10.03;;
65831;SDS011;52593;42.648;23.332;2023-02-28T01:35:34;25.20;;;9.97;;
65831;SDS011;52593;42.648;23.332;2023-02-28T01:38:01;26.05;;;10.27;;
65831;SDS011;52593;42.648;23.332;2023-02-28T01:40:27;27.50;;;10.60;;
65831;SDS011;52593;42.648;23.332;2023-02-28T01:42:52;26.20;;;9.77;;
65831;SDS011;52593;42.648;23.332;2023-02-28T01:47:52;24.30;;;9.32;;
65831;SDS011;52593;42.648;23.332;2023-02-28T01:50:23;29.65;;;10.73;;
65831;SDS011;52593;42.648;23.332;2023-02-28T01:52:53;29.33;;;9.67;;
65831;SDS011;52593;42.648;23.332;2023-02-28T01:55:21;24.48;;;9.65;;
65831;SDS011;52593;42.648;23.332;2023-02-28T01:57:54;25.08;;;9.65;;
65831;SDS011;52593;42.648;23.332;2023-02-28T02:00:22;26.80;;;9.48;;
65831;SDS011;52593;42.648;23.332;2023-02-28T02:02:53;28.80;;;10.07;;
65831;SDS011;52593;42.648;23.332;2023-02-28T02:05:22;30.83;;;11.03;;
65831;SDS011;52593;42.648;23.332;2023-02-28T02:07:54;32.17;;;11.85;;
65831;SDS011;52593;42.648;23.332;2023-02-28T02:10:21;33.35;;;11.10;;
65831;SDS011;52593;42.648;23.332;2023-02-28T02:13:03;30.25;;;10.70;;
65831;SDS011;52593;42.648;23.332;2023-02-28T02:37:22;36.50;;;12.40;;
65831;SDS011;52593;42.648;23.332;2023-02-28T02:39:50;37.63;;;13.00;;
65831;SDS011;52593;42.648;23.332;2023-02-28T02:42:31;37.05;;;12.93;;
65831;SDS011;52593;42.648;23.332;2023-02-28T02:45:00;38.63;;;13.07;;
65831;SDS011;52593;42.648;23.332;2023-02-28T02:47:31;39.85;;;13.85;;
65831;SDS011;52593;42.648;23.332;2023-02-28T02:49:59;43.25;;;14.75;;
65831;SDS011;52593;42.648;23.332;2023-02-28T02:52:34;40.00;;;12.98;;
65831;SDS011;52593;42.648;23.332;2023-02-28T02:55:05;41.72;;;13.10;;
65831;SDS011;52593;42.648;23.332;2023-02-28T02:57:37;41.37;;;12.53;;
65831;SDS011;52593;42.648;23.332;2023-02-28T03:00:25;45.70;;;13.23;;
65831;SDS011;52593;42.648;23.332;2023-02-28T03:02:55;48.60;;;13.95;;
65831;SDS011;52593;42.648;23.332;2023-02-28T03:05:35;49.15;;;13.68;;
65831;SDS011;52593;42.648;23.332;2023-02-28T03:08:07;38.75;;;13.77;;
65831;SDS011;52593;42.648;23.332;2023-02-28T03:10:40;47.00;;;15.27;;
65831;SDS011;52593;42.648;23.332;2023-02-28T03:19:01;46.85;;;14.77;;
65831;SDS011;52593;42.648;23.332;2023-02-28T03:21:40;47.30;;;15.10;;
65831;SDS011;52593;42.648;23.332;2023-02-28T03:24:19;44.70;;;14.63;;
65831;SDS011;52593;42.648;23.332;2023-02-28T03:26:46;45.38;;;15.32;;
65831;SDS011;52593;42.648;23.332;2023-02-28T03:29:27;44.47;;;15.63;;
65831;SDS011;52593;42.648;23.332;2023-02-28T03:34:50;49.30;;;16.08;;
65831;SDS011;52593;42.648;23.332;2023-02-28T03:37:23;46.72;;;15.13;;
65831;SDS011;52593;42.648;23.332;2023-02-28T03:39:53;41.08;;;14.15;;
65831;SDS011;52593;42.648;23.332;2023-02-28T03:42:29;46.07;;;14.67;;
65831;SDS011;52593;42.648;23.332;2023-02-28T03:45:05;41.15;;;14.00;;
65831;SDS011;52593;42.648;23.332;2023-02-28T03:53:02;36.35;;;12.23;;
65831;SDS011;52593;42.648;23.332;2023-02-28T03:55:45;34.90;;;10.63;;
65831;SDS011;52593;42.648;23.332;2023-02-28T04:01:21;36.30;;;11.38;;
65831;SDS011;52593;42.648;23.332;2023-02-28T04:03:52;35.70;;;12.02;;
65831;SDS011;52593;42.648;23.332;2023-02-28T04:06:19;34.00;;;11.80;;
65831;SDS011;52593;42.648;23.332;2023-02-28T04:08:47;32.47;;;10.63;;
65831;SDS011;52593;42.648;23.332;2023-02-28T04:14:10;29.98;;;9.80;;
65831;SDS011;52593;42.648;23.332;2023-02-28T04:16:37;32.33;;;10.80;;
65831;SDS011;52593;42.648;23.332;2023-02-28T04:19:05;32.70;;;10.85;;
65831;SDS011;52593;42.648;23.332;2023-02-28T04:21:33;37.78;;;12.40;;
65831;SDS011;52593;42.648;23.332;2023-02-28T04:24:13;37.67;;;11.93;;
65831;SDS011;52593;42.648;23.332;2023-02-28T04:26:42;34.25;;;11.48;;
65831;SDS011;52593;42.648;23.332;2023-02-28T04:29:09;34.27;;;11.53;;
65831;SDS011;52593;42.648;23.332;2023-02-28T04:31:36;34.58;;;12.25;;
65831;SDS011;52593;42.648;23.332;2023-02-28T04:34:02;33.90;;;11.20;;
65831;SDS011;52593;42.648;23.332;2023-02-28T04:36:28;28.90;;;10.57;;
65831;SDS011;52593;42.648;23.332;2023-02-28T04:38:53;34.43;;;10.57;;
65831;SDS011;52593;42.648;23.332;2023-02-28T04:41:19;35.92;;;10.90;;
65831;SDS011;52593;42.648;23.332;2023-02-28T04:43:45;35.53;;;11.10;;
65831;SDS011;52593;42.648;23.332;2023-02-28T04:46:11;33.53;;;11.18;;
65831;SDS011;52593;42.648;23.332;2023-02-28T04:48:37;33.23;;;11.07;;
65831;SDS011;52593;42.648;23.332;2023-02-28T04:51:05;36.50;;;11.20;;
65831;SDS011;52593;42.648;23.332;2023-02-28T04:53:33;32.85;;;10.93;;
65831;SDS011;52593;42.648;23.332;2023-02-28T04:55:59;32.75;;;10.18;;
65831;SDS011;52593;42.648;23.332;2023-02-28T04:58:25;32.85;;;10.23;;
65831;SDS011;52593;42.648;23.332;2023-02-28T05:00:51;32.07;;;10.27;;
65831;SDS011;52593;42.648;23.332;2023-02-28T05:03:18;33.95;;;10.73;;
65831;SDS011;52593;42.648;23.332;2023-02-28T05:05:44;32.70;;;11.35;;
65831;SDS011;52593;42.648;23.332;2023-02-28T05:08:09;32.17;;;10.33;;
65831;SDS011;52593;42.648;23.332;2023-02-28T05:10:35;36.57;;;11.70;;
65831;SDS011;52593;42.648;23.332;2023-02-28T05:13:01;31.30;;;10.67;;
65831;SDS011;52593;42.648;23.332;2023-02-28T05:15:26;31.90;;;10.63;;
65831;SDS011;52593;42.648;23.332;2023-02-28T05:17:51;29.30;;;10.23;;
65831;SDS011;52593;42.648;23.332;2023-02-28T05:20:17;30.10;;;10.17;;
65831;SDS011;52593;42.648;23.332;2023-02-28T05:22:42;32.60;;;10.57;;
65831;SDS011;52593;42.648;23.332;2023-02-28T05:25:12;32.95;;;10.80;;
65831;SDS011;52593;42.648;23.332;2023-02-28T05:27:41;33.95;;;12.35;;
65831;SDS011;52593;42.648;23.332;2023-02-28T05:30:06;29.73;;;10.60;;
65831;SDS011;52593;42.648;23.332;2023-02-28T05:32:35;30.25;;;11.18;;
65831;SDS011;52593;42.648;23.332;2023-02-28T05:35:01;34.93;;;11.30;;
65831;SDS011;52593;42.648;23.332;2023-02-28T05:37:26;36.28;;;11.02;;
65831;SDS011;52593;42.648;23.332;2023-02-28T05:39:52;33.97;;;11.30;;
65831;SDS011;52593;42.648;23.332;2023-02-28T05:42:17;32.10;;;11.23;;
65831;SDS011;52593;42.648;23.332;2023-02-28T05:44:42;30.50;;;11.20;;
65831;SDS011;52593;42.648;23.332;2023-02-28T05:47:08;42.00;;;12.13;;
65831;SDS011;52593;42.648;23.332;2023-02-28T05:49:33;38.57;;;12.80;;
65831;SDS011;52593;42.648;23.332;2023-02-28T05:51:59;38.93;;;12.60;;
65831;SDS011;52593;42.648;23.332;2023-02-28T05:54:24;31.70;;;11.95;;
65831;SDS011;52593;42.648;23.332;2023-02-28T05:56:50;35.00;;;12.10;;
65831;SDS011;52593;42.648;23.332;2023-02-28T05:59:15;38.53;;;13.57;;
65831;SDS011;52593;42.648;23.332;2023-02-28T06:01:44;37.83;;;13.20;;
65831;SDS011;52593;42.648;23.332;2023-02-28T06:04:13;37.85;;;12.13;;
65831;SDS011;52593;42.648;23.332;2023-02-28T06:06:43;37.72;;;13.38;;
65831;SDS011;52593;42.648;23.332;2023-02-28T06:09:09;40.85;;;13.95;;
65831;SDS011;52593;42.648;23.332;2023-02-28T06:11:35;45.53;;;13.77;;
65831;SDS011;52593;42.648;23.332;2023-02-28T06:14:01;45.43;;;14.70;;
65831;SDS011;52593;42.648;23.332;2023-02-28T06:16:27;40.78;;;14.13;;
65831;SDS011;52593;42.648;23.332;2023-02-28T06:18:54;44.78;;;15.55;;
65831;SDS011;52593;42.648;23.332;2023-02-28T06:21:22;42.20;;;15.55;;
65831;SDS011;52593;42.648;23.332;2023-02-28T06:23:47;43.93;;;13.83;;
65831;SDS011;52593;42.648;23.332;2023-02-28T06:26:13;44.57;;;14.87;;
65831;SDS011;52593;42.648;23.332;2023-02-28T06:28:38;38.57;;;14.13;;
65831;SDS011;52593;42.648;23.332;2023-02-28T06:31:12;36.17;;;13.88;;
65831;SDS011;52593;42.648;23.332;2023-02-28T06:33:40;40.05;;;13.98;;
65831;SDS011;52593;42.648;23.332;2023-02-28T06:36:07;35.03;;;13.63;;
65831;SDS011;52593;42.648;23.332;2023-02-28T06:38:34;37.80;;;12.70;;
65831;SDS011;52593;42.648;23.332;2023-02-28T06:41:00;37.25;;;13.80;;
65831;SDS011;52593;42.648;23.332;2023-02-28T06:43:27;31.48;;;12.77;;
65831;SDS011;52593;42.648;23.332;2023-02-28T06:45:55;36.63;;;13.85;;
65831;SDS011;52593;42.648;23.332;2023-02-28T06:48:22;34.37;;;13.73;;
65831;SDS011;52593;42.648;23.332;2023-02-28T06:50:47;40.58;;;13.90;;
65831;SDS011;52593;42.648;23.332;2023-02-28T06:53:13;40.70;;;14.37;;
65831;SDS011;52593;42.648;23.332;2023-02-28T06:55:39;38.95;;;14.35;;
65831;SDS011;52593;42.648;23.332;2023-02-28T06:58:05;41.93;;;15.13;;
65831;SDS011;52593;42.648;23.332;2023-02-28T07:00:42;45.08;;;16.05;;
65831;SDS011;52593;42.648;23.332;2023-02-28T07:03:09;49.78;;;16.75;;
65831;SDS011;52593;42.648;23.332;2023-02-28T07:05:35;46.83;;;17.00;;
65831;SDS011;52593;42.648;23.332;2023-02-28T07:08:01;48.03;;;16.08;;
65831;SDS011;52593;42.648;23.332;2023-02-28T07:10:28;44.67;;;16.30;;
65831;SDS011;52593;42.648;23.332;2023-02-28T07:12:53;47.17;;;16.13;;
65831;SDS011;52593;42.648;23.332;2023-02-28T07:15:19;43.77;;;15.33;;
65831;SDS011;52593;42.648;23.332;2023-02-28T07:17:44;53.33;;;17.20;;
65831;SDS011;52593;42.648;23.332;2023-02-28T07:20:10;47.67;;;15.90;;
65831;SDS011;52593;42.648;23.332;2023-02-28T07:22:35;49.15;;;16.65;;
65831;SDS011;52593;42.648;23.332;2023-02-28T07:25:01;45.57;;;17.43;;
65831;SDS011;52593;42.648;23.332;2023-02-28T07:27:26;50.53;;;17.73;;
65831;SDS011;52593;42.648;23.332;2023-02-28T07:29:52;43.87;;;17.63;;
65831;SDS011;52593;42.648;23.332;2023-02-28T07:32:18;52.65;;;17.05;;
65831;SDS011;52593;42.648;23.332;2023-02-28T07:34:44;48.95;;;17.45;;
65831;SDS011;52593;42.648;23.332;2023-02-28T07:37:10;45.72;;;15.77;;
65831;SDS011;52593;42.648;23.332;2023-02-28T07:39:35;43.97;;;15.47;;
65831;SDS011;52593;42.648;23.332;2023-02-28T07:42:04;51.33;;;16.80;;
65831;SDS011;52593;42.648;23.332;2023-02-28T07:44:29;52.63;;;18.10;;
65831;SDS011;52593;42.648;23.332;2023-02-28T07:46:55;52.67;;;18.40;;
65831;SDS011;52593;42.648;23.332;2023-02-28T07:49:20;58.30;;;19.67;;
65831;SDS011;52593;42.648;23.332;2023-02-28T07:51:46;57.53;;;19.67;;
65831;SDS011;52593;42.648;23.332;2023-02-28T07:54:11;50.23;;;18.37;;
65831;SDS011;52593;42.648;23.332;2023-02-28T07:56:36;47.63;;;17.07;;
65831;SDS011;52593;42.648;23.332;2023-02-28T07:59:02;51.63;;;18.10;;
65831;SDS011;52593;42.648;23.332;2023-02-28T08:01:27;49.23;;;16.87;;
65831;SDS011;52593;42.648;23.332;2023-02-28T08:03:53;45.00;;;17.20;;
65831;SDS011;52593;42.648;23.332;2023-02-28T08:06:20;43.40;;;16.67;;
65831;SDS011;52593;42.648;23.332;2023-02-28T08:08:47;48.17;;;16.13;;
65831;SDS011;52593;42.648;23.332;2023-02-28T08:11:13;50.88;;;17.35;;
65831;SDS011;52593;42.648;23.332;2023-02-28T08:13:39;47.53;;;16.85;;
65831;SDS011;52593;42.648;23.332;2023-02-28T08:16:05;43.90;;;15.80;;
65831;SDS011;52593;42.648;23.332;2023-02-28T08:18:30;46.22;;;16.80;;
65831;SDS011;52593;42.648;23.332;2023-02-28T08:20:57;40.63;;;15.40;;
65831;SDS011;52593;42.648;23.332;2023-02-28T08:23:22;38.70;;;15.27;;
65831;SDS011;52593;42.648;23.332;2023-02-28T08:25:57;47.33;;;17.27;;
65831;SDS011;52593;42.648;23.332;2023-02-28T08:28:22;47.67;;;17.77;;
65831;SDS011;52593;42.648;23.332;2023-02-28T08:30:48;53.17;;;18.13;;
65831;SDS011;52593;42.648;23.332;2023-02-28T08:33:13;56.25;;;17.75;;
65831;SDS011;52593;42.648;23.332;2023-02-28T08:35:39;49.20;;;17.60;;
65831;SDS011;52593;42.648;23.332;2023-02-28T08:38:04;47.17;;;17.03;;
65831;SDS011;52593;42.648;23.332;2023-02-28T08:40:30;44.33;;;16.57;;
65831;SDS011;52593;42.648;23.332;2023-02-28T08:42:55;55.17;;;17.70;;
65831;SDS011;52593;42.648;23.332;2023-02-28T08:45:21;47.93;;;17.70;;
65831;SDS011;52593;42.648;23.332;2023-02-28T08:47:46;48.47;;;19.10;;
65831;SDS011;52593;42.648;23.332;2023-02-28T08:50:11;47.63;;;17.67;;
65831;SDS011;52593;42.648;23.332;2023-02-28T08:52:41;48.80;;;18.38;;
65831;SDS011;52593;42.648;23.332;2023-02-28T08:55:07;49.15;;;17.10;;
65831;SDS011;52593;42.648;23.332;2023-02-28T08:57:34;44.38;;;17.23;;
65831;SDS011;52593;42.648;23.332;2023-02-28T09:00:00;49.60;;;16.07;;
65831;SDS011;52593;42.648;23.332;2023-02-28T09:02:29;53.38;;;17.92;;
65831;SDS011;52593;42.648;23.332;2023-02-28T09:04:57;47.97;;;18.25;;
65831;SDS011;52593;42.648;23.332;2023-02-28T09:07:23;48.47;;;18.30;;
65831;SDS011;52593;42.648;23.332;2023-02-28T09:09:49;55.55;;;19.38;;
65831;SDS011;52593;42.648;23.332;2023-02-28T09:12:23;53.15;;;18.73;;
65831;SDS011;52593;42.648;23.332;2023-02-28T09:14:49;56.77;;;18.87;;
65831;SDS011;52593;42.648;23.332;2023-02-28T09:17:15;58.78;;;20.27;;
65831;SDS011;52593;42.648;23.332;2023-02-28T09:19:41;62.50;;;21.63;;
65831;SDS011;52593;42.648;23.332;2023-02-28T09:22:07;65.75;;;21.25;;
65831;SDS011;52593;42.648;23.332;2023-02-28T09:24:33;68.30;;;22.48;;
65831;SDS011;52593;42.648;23.332;2023-02-28T09:27:00;61.85;;;19.20;;
65831;SDS011;52593;42.648;23.332;2023-02-28T09:29:25;60.93;;;20.40;;
65831;SDS011;52593;42.648;23.332;2023-02-28T09:31:50;62.97;;;19.97;;
65831;SDS011;52593;42.648;23.332;2023-02-28T09:34:16;60.93;;;21.40;;
65831;SDS011;52593;42.648;23.332;2023-02-28T09:36:42;60.85;;;21.48;;
65831;SDS011;52593;42.648;23.332;2023-02-28T09:39:08;59.03;;;20.73;;
65831;SDS011;52593;42.648;23.332;2023-02-28T09:41:52;60.93;;;19.67;;
65831;SDS011;52593;42.648;23.332;2023-02-28T09:44:31;63.53;;;20.90;;
65831;SDS011;52593;42.648;23.332;2023-02-28T09:47:01;62.53;;;19.20;;
65831;SDS011;52593;42.648;23.332;2023-02-28T09:49:42;52.28;;;16.77;;
65831;SDS011;52593;42.648;23.332;2023-02-28T09:52:26;38.65;;;13.80;;
65831;SDS011;52593;42.648;23.332;2023-02-28T09:54:55;33.40;;;11.57;;
65831;SDS011;52593;42.648;23.332;2023-02-28T09:57:26;31.33;;;9.98;;
65831;SDS011;52593;42.648;23.332;2023-02-28T10:02:48;23.75;;;8.55;;
65831;SDS011;52593;42.648;23.332;2023-02-28T10:05:18;23.97;;;8.60;;
65831;SDS011;52593;42.648;23.332;2023-02-28T10:11:03;29.20;;;8.75;;
65831;SDS011;52593;42.648;23.332;2023-02-28T10:16:07;25.95;;;8.45;;
65831;SDS011;52593;42.648;23.332;2023-02-28T10:18:43;25.57;;;8.83;;
65831;SDS011;52593;42.648;23.332;2023-02-28T10:21:47;25.92;;;8.48;;
65831;SDS011;52593;42.648;23.332;2023-02-28T10:29:54;27.42;;;8.75;;
65831;SDS011;52593;42.648;23.332;2023-02-28T10:32:25;25.97;;;8.27;;
65831;SDS011;52593;42.648;23.332;2023-02-28T10:34:57;25.98;;;9.13;;
65831;SDS011;52593;42.648;23.332;2023-02-28T10:37:26;29.58;;;8.93;;
65831;SDS011;52593;42.648;23.332;2023-02-28T10:39:52;26.00;;;7.70;;
65831;SDS011;52593;42.648;23.332;2023-02-28T10:42:25;26.53;;;8.83;;
65831;SDS011;52593;42.648;23.332;2023-02-28T10:45:16;28.15;;;8.82;;
65831;SDS011;52593;42.648;23.332;2023-02-28T10:50:26;24.75;;;8.18;;
65831;SDS011;52593;42.648;23.332;2023-02-28T10:53:28;24.27;;;9.02;;
65831;SDS011;52593;42.648;23.332;2023-02-28T10:59:20;23.42;;;8.35;;
65831;SDS011;52593;42.648;23.332;2023-02-28T11:01:23;25.45;;;8.48;;
65831;SDS011;52593;42.648;23.332;2023-02-28T11:03:55;22.55;;;8.40;;
65831;SDS011;52593;42.648;23.332;2023-02-28T11:06:23;22.42;;;7.97;;
65831;SDS011;52593;42.648;23.332;2023-02-28T11:08:53;21.63;;;8.70;;
65831;SDS011;52593;42.648;23.332;2023-02-28T11:11:28;29.05;;;9.45;;
65831;SDS011;52593;42.648;23.332;2023-02-28T11:13:57;29.10;;;8.65;;
65831;SDS011;52593;42.648;23.332;2023-02-28T11:16:33;22.30;;;8.57;;
65831;SDS011;52593;42.648;23.332;2023-02-28T11:19:00;26.00;;;8.63;;
65831;SDS011;52593;42.648;23.332;2023-02-28T11:21:32;30.00;;;10.20;;
65831;SDS011;52593;42.648;23.332;2023-02-28T11:26:58;27.27;;;9.60;;
65831;SDS011;52593;42.648;23.332;2023-02-28T11:29:24;27.80;;;10.10;;
65831;SDS011;52593;42.648;23.332;2023-02-28T11:32:04;26.38;;;9.05;;
65831;SDS011;52593;42.648;23.332;2023-02-28T11:34:35;25.92;;;9.05;;
65831;SDS011;52593;42.648;23.332;2023-02-28T11:37:03;23.95;;;8.32;;
65831;SDS011;52593;42.648;23.332;2023-02-28T11:39:30;26.15;;;9.00;;
65831;SDS011;52593;42.648;23.332;2023-02-28T11:42:01;26.87;;;8.57;;
65831;SDS011;52593;42.648;23.332;2023-02-28T11:47:26;28.85;;;9.68;;
65831;SDS011;52593;42.648;23.332;2023-02-28T11:50:00;27.75;;;9.30;;
65831;SDS011;52593;42.648;23.332;2023-02-28T12:06:13;29.40;;;9.27;;
65831;SDS011;52593;42.648;23.332;2023-02-28T12:08:51;25.20;;;8.87;;
65831;SDS011;52593;42.648;23.332;2023-02-28T12:17:00;22.45;;;7.32;;
65831;SDS011;52593;42.648;23.332;2023-02-28T12:22:01;24.33;;;7.77;;
65831;SDS011;52593;42.648;23.332;2023-02-28T12:27:30;22.87;;;7.80;;
65831;SDS011;52593;42.648;23.332;2023-02-28T12:30:34;23.83;;;7.90;;
65831;SDS011;52593;42.648;23.332;2023-02-28T12:35:59;29.08;;;10.73;;
65831;SDS011;52593;42.648;23.332;2023-02-28T12:38:27;27.60;;;10.98;;
65831;SDS011;52593;42.648;23.332;2023-02-28T12:41:00;25.83;;;9.70;;
65831;SDS011;52593;42.648;23.332;2023-02-28T12:43:38;25.73;;;9.00;;
65831;SDS011;52593;42.648;23.332;2023-02-28T12:46:19;28.27;;;8.98;;
65831;SDS011;52593;42.648;23.332;2023-02-28T12:48:59;32.72;;;9.52;;
65831;SDS011;52593;42.648;23.332;2023-02-28T12:51:29;26.83;;;8.57;;
65831;SDS011;52593;42.648;23.332;2023-02-28T13:02:37;27.33;;;9.13;;
65831;SDS011;52593;42.648;23.332;2023-02-28T13:13:59;29.95;;;9.73;;
65831;SDS011;52593;42.648;23.332;2023-02-28T13:19:22;29.88;;;10.95;;
65831;SDS011;52593;42.648;23.332;2023-02-28T13:21:51;26.43;;;8.67;;
65831;SDS011;52593;42.648;23.332;2023-02-28T13:34:31;19.00;;;7.18;;
65831;SDS011;52593;42.648;23.332;2023-02-28T13:39:48;22.15;;;6.72;;
65831;SDS011;52593;42.648;23.332;2023-02-28T13:45:31;18.05;;;6.00;;
65831;SDS011;52593;42.648;23.332;2023-02-28T13:47:33;19.63;;;6.70;;
65831;SDS011;52593;42.648;23.332;2023-02-28T13:52:43;16.88;;;6.00;;
65831;SDS011;52593;42.648;23.332;2023-02-28T14:04:00;21.17;;;6.63;;
65831;SDS011;52593;42.648;23.332;2023-02-28T14:06:38;20.77;;;6.25;;
65831;SDS011;52593;42.648;23.332;2023-02-28T14:09:24;19.52;;;6.57;;
65831;SDS011;52593;42.648;23.332;2023-02-28T14:11:51;29.52;;;8.23;;
65831;SDS011;52593;42.648;23.332;2023-02-28T14:17:03;23.67;;;7.77;;
65831;SDS011;52593;42.648;23.332;2023-02-28T14:19:32;25.20;;;7.47;;
65831;SDS011;52593;42.648;23.332;2023-02-28T14:24:35;22.25;;;8.10;;
65831;SDS011;52593;42.648;23.332;2023-02-28T14:27:24;24.55;;;7.90;;
65831;SDS011;52593;42.648;23.332;2023-02-28T14:38:05;20.65;;;6.85;;
65831;SDS011;52593;42.648;23.332;2023-02-28T14:40:38;23.48;;;7.55;;
65831;SDS011;52593;42.648;23.332;2023-02-28T14:43:06;24.90;;;7.30;;
65831;SDS011;52593;42.648;23.332;2023-02-28T14:45:43;26.02;;;7.10;;
65831;SDS011;52593;42.648;23.332;2023-02-28T14:48:14;27.42;;;7.75;;
65831;SDS011;52593;42.648;23.332;2023-02-28T14:50:41;25.60;;;7.75;;
65831;SDS011;52593;42.648;23.332;2023-02-28T14:53:18;23.60;;;7.30;;
65831;SDS011;52593;42.648;23.332;2023-02-28T14:55:46;22.07;;;7.37;;
65831;SDS011;52593;42.648;23.332;2023-02-28T14:58:24;24.85;;;7.30;;
65831;SDS011;52593;42.648;23.332;2023-02-28T15:00:54;25.33;;;7.60;;
65831;SDS011;52593;42.648;23.332;2023-02-28T15:03:32;22.83;;;7.20;;
65831;SDS011;52593;42.648;23.332;2023-02-28T15:06:00;24.20;;;7.32;;
65831;SDS011;52593;42.648;23.332;2023-02-28T15:08:28;24.13;;;7.23;;
65831;SDS011;52593;42.648;23.332;2023-02-28T15:11:00;24.35;;;7.68;;
65831;SDS011;52593;42.648;23.332;2023-02-28T15:13:45;26.45;;;7.78;;
65831;SDS011;52593;42.648;23.332;2023-02-28T15:16:29;21.05;;;7.32;;
65831;SDS011;52593;42.648;23.332;2023-02-28T15:19:14;27.15;;;7.35;;
65831;SDS011;52593;42.648;23.332;2023-02-28T15:21:49;26.70;;;7.80;;
65831;SDS011;52593;42.648;23.332;2023-02-28T15:24:41;19.63;;;6.65;;
65831;SDS011;52593;42.648;23.332;2023-02-28T15:27:42;25.85;;;7.20;;
65831;SDS011;52593;42.648;23.332;2023-02-28T15:30:08;17.40;;;6.07;;
65831;SDS011;52593;42.648;23.332;2023-02-28T15:32:40;18.13;;;6.82;;
65831;SDS011;52593;42.648;23.332;2023-02-28T15:35:19;21.27;;;7.03;;
65831;SDS011;52593;42.648;23.332;2023-02-28T15:37:54;21.58;;;7.35;;
65831;SDS011;52593;42.648;23.332;2023-02-28T15:40:26;24.23;;;6.72;;
65831;SDS011;52593;42.648;23.332;2023-02-28T15:43:00;23.55;;;6.72;;
65831;SDS011;52593;42.648;23.332;2023-02-28T15:45:31;23.50;;;7.90;;
65831;SDS011;52593;42.648;23.332;2023-02-28T15:48:16;19.87;;;7.47;;
65831;SDS011;52593;42.648;23.332;2023-02-28T15:50:47;21.85;;;7.13;;
65831;SDS011;52593;42.648;23.332;2023-02-28T15:53:30;18.48;;;7.07;;
65831;SDS011;52593;42.648;23.332;2023-02-28T15:56:04;18.27;;;6.40;;
65831;SDS011;52593;42.648;23.332;2023-02-28T15:58:32;19.70;;;6.90;;
65831;SDS011;52593;42.648;23.332;2023-02-28T16:01:00;19.23;;;5.97;;
65831;SDS011;52593;42.648;23.332;2023-02-28T16:03:43;15.93;;;5.45;;
65831;SDS011;52593;42.648;23.332;2023-02-28T16:09:24;17.75;;;5.93;;
65831;SDS011;52593;42.648;23.332;2023-02-28T16:11:52;14.65;;;5.88;;
65831;SDS011;52593;42.648;23.332;2023-02-28T16:14:24;18.23;;;5.37;;
65831;SDS011;52593;42.648;23.332;2023-02-28T16:16:53;14.20;;;5.45;;
65831;SDS011;52593;42.648;23.332;2023-02-28T16:19:21;15.30;;;5.78;;
65831;SDS011;52593;42.648;23.332;2023-02-28T16:21:47;19.33;;;5.90;;
65831;SDS011;52593;42.648;23.332;2023-02-28T16:24:13;16.03;;;6.03;;
65831;SDS011;52593;42.648;23.332;2023-02-28T16:26:44;17.83;;;6.15;;
65831;SDS011;52593;42.648;23.332;2023-02-28T16:29:13;14.88;;;5.65;;
65831;SDS011;52593;42.648;23.332;2023-02-28T16:31:47;16.15;;;5.60;;
65831;SDS011;52593;42.648;23.332;2023-02-28T16:34:13;14.10;;;5.30;;
65831;SDS011;52593;42.648;23.332;2023-02-28T16:36:38;16.03;;;5.50;;
65831;SDS011;52593;42.648;23.332;2023-02-28T16:39:03;16.80;;;5.43;;
65831;SDS011;52593;42.648;23.332;2023-02-28T16:41:30;12.63;;;5.35;;
65831;SDS011;52593;42.648;23.332;2023-02-28T16:43:55;13.43;;;4.80;;
65831;SDS011;52593;42.648;23.332;2023-02-28T16:46:26;13.27;;;4.88;;
65831;SDS011;52593;42.648;23.332;2023-02-28T16:48:55;13.43;;;5.13;;
65831;SDS011;52593;42.648;23.332;2023-02-28T16:51:20;13.67;;;4.37;;
65831;SDS011;52593;42.648;23.332;2023-02-28T16:53:46;16.67;;;5.20;;
65831;SDS011;52593;42.648;23.332;2023-02-28T16:56:15;12.20;;;4.30;;
65831;SDS011;52593;42.648;23.332;2023-02-28T16:58:43;12.63;;;3.85;;
65831;SDS011;52593;42.648;23.332;2023-02-28T17:01:08;13.93;;;4.63;;
65831;SDS011;52593;42.648;23.332;2023-02-28T17:03:34;12.87;;;4.70;;
65831;SDS011;52593;42.648;23.332;2023-02-28T17:06:01;13.57;;;3.97;;
65831;SDS011;52593;42.648;23.332;2023-02-28T17:08:26;10.67;;;3.87;;
65831;SDS011;52593;42.648;23.332;2023-02-28T17:10:54;11.90;;;3.90;;